Time;durP1;ratioP1;P1;durP2;ratioP2;P2;SDS_P1;SDS_P2;PMS_P1;PMS_P2;Temp;Humidity;BMP_temperature;BMP_pressure;BME280_temperature;BME280_humidity;BME280_pressure;Samples;Min_cycle;Max_cycle;Signal;HPM_P1;HPM_P2
2022/10/12 00:01:59;;;;;;;1.08;1.08;;;;;;;11.89;100.00;100479.91;7393185;19;20074;-58
2022/10/12 00:04:25;;;;;;;14.55;1.58;;;;;;;11.94;100.00;100484.84;7391375;19;20024;-58
2022/10/12 00:06:51;;;;;;;0.88;0.88;;;;;;;11.98;100.00;100477.09;7393158;19;20010;-58
2022/10/12 00:09:17;;;;;;;0.77;0.77;;;;;;;11.98;100.00;100476.31;7392162;19;20074;-58
2022/10/12 00:11:43;;;;;;;1.13;0.60;;;;;;;12.00;100.00;100482.97;7392349;19;20011;-59
2022/10/12 00:14:09;;;;;;;1.85;0.90;;;;;;;11.86;100.00;100475.28;7389323;19;20018;-58
2022/10/12 00:16:35;;;;;;;23.33;1.48;;;;;;;11.96;100.00;100468.41;7395683;19;20056;-58
2022/10/12 00:19:02;;;;;;;5.25;0.70;;;;;;;12.08;100.00;100475.03;7393063;19;20010;-58
2022/10/12 00:21:29;;;;;;;1.20;0.28;;;;;;;12.03;100.00;100473.66;7391591;19;20014;-58
2022/10/12 00:23:57;;;;;;;1.05;0.50;;;;;;;12.13;100.00;100466.78;7392244;19;20406;-58
2022/10/12 00:26:23;;;;;;;0.82;0.68;;;;;;;12.12;100.00;100459.69;7388709;19;20014;-58
2022/10/12 00:28:56;;;;;;;0.98;0.70;;;;;;;12.11;100.00;100468.50;7390100;19;20010;-58
2022/10/12 00:31:22;;;;;;;2.13;0.88;;;;;;;12.04;100.00;100468.84;7391318;19;20015;-58
2022/10/12 00:33:49;;;;;;;0.45;0.45;;;;;;;11.96;100.00;100471.19;7389533;19;20466;-59
2022/10/12 00:36:30;;;;;;;0.95;0.30;;;;;;;11.89;100.00;100460.34;7389685;19;20038;-59
2022/10/12 00:38:57;;;;;;;0.52;0.50;;;;;;;11.96;100.00;100462.81;7388301;19;20014;-58
2022/10/12 00:41:27;;;;;;;17.75;1.15;;;;;;;11.99;100.00;100467.47;7392891;19;20041;-58
2022/10/12 00:43:53;;;;;;;2.38;1.08;;;;;;;11.98;100.00;100453.97;7390863;19;20006;-58
2022/10/12 00:46:39;;;;;;;0.73;0.73;;;;;;;11.85;100.00;100451.38;7392121;19;20014;-59
2022/10/12 00:49:11;;;;;;;2.00;1.20;;;;;;;11.81;100.00;100444.41;7390952;19;20010;-58
2022/10/12 00:51:40;;;;;;;0.50;0.50;;;;;;;11.78;100.00;100443.34;7392738;19;20509;-58
2022/10/12 00:54:11;;;;;;;4.50;0.60;;;;;;;11.77;100.00;100444.59;7390981;19;20347;-58
2022/10/12 00:56:40;;;;;;;0.60;0.60;;;;;;;11.70;100.00;100438.56;7393570;19;20007;-58
2022/10/12 00:59:15;;;;;;;4.57;0.82;;;;;;;11.81;100.00;100438.84;7394064;19;20220;-58
2022/10/12 01:01:41;;;;;;;1.13;0.68;;;;;;;11.87;100.00;100440.53;7394380;19;20359;-58
2022/10/12 01:04:08;;;;;;;10.20;1.17;;;;;;;11.84;100.00;100433.09;7394438;19;20014;-60
2022/10/12 01:06:35;;;;;;;1.88;1.08;;;;;;;11.81;100.00;100434.03;7392235;19;20022;-59
2022/10/12 01:09:01;;;;;;;0.95;0.93;;;;;;;11.80;100.00;100423.34;7393934;19;20010;-51
2022/10/12 01:11:27;;;;;;;2.42;1.20;;;;;;;11.73;100.00;100427.25;7394017;19;20006;-51
2022/10/12 01:13:53;;;;;;;1.17;0.55;;;;;;;11.79;100.00;100419.78;7392569;19;20451;-60
2022/10/12 01:16:25;;;;;;;4.03;0.75;;;;;;;11.86;100.00;100410.28;7394673;19;20400;-59
2022/10/12 01:18:51;;;;;;;0.95;0.95;;;;;;;10.67;100.00;100414.44;7394458;19;20014;-58
2022/10/12 01:21:18;;;;;;;6.45;0.63;;;;;;;11.58;100.00;100414.38;7393739;19;20014;-58
2022/10/12 01:23:56;;;;;;;1.02;0.60;;;;;;;11.75;100.00;100408.00;7394402;19;20420;-51
2022/10/12 01:26:54;;;;;;;0.70;0.70;;;;;;;11.81;100.00;100406.13;7393526;19;20819;-52
2022/10/12 01:29:53;;;;;;;0.32;0.32;;;;;;;11.78;100.00;100401.47;7392706;19;20459;-51
2022/10/12 01:32:42;;;;;;;3.60;1.08;;;;;;;11.81;100.00;100400.53;7391947;19;20018;-51
2022/10/12 01:35:35;;;;;;;0.47;0.47;;;;;;;11.74;100.00;100388.94;7391774;19;20034;-51
2022/10/12 01:38:24;;;;;;;0.80;0.80;;;;;;;11.73;100.00;100393.75;7392288;19;20010;-52
2022/10/12 01:41:08;;;;;;;1.00;0.82;;;;;;;11.69;100.00;100386.78;7386941;19;20007;-52
2022/10/12 01:43:39;;;;;;;0.63;0.45;;;;;;;11.66;100.00;100393.28;7388964;19;20037;-52
2022/10/12 01:46:16;;;;;;;1.08;0.73;;;;;;;11.61;100.00;100386.31;7391102;19;20011;-51
2022/10/12 01:48:44;;;;;;;3.30;0.60;;;;;;;11.58;100.00;100386.50;7391316;19;20043;-52
2022/10/12 01:51:13;;;;;;;1.02;0.90;;;;;;;11.60;100.00;100373.63;7396549;19;20022;-52
2022/10/12 01:53:45;;;;;;;3.08;0.68;;;;;;;11.69;100.00;100376.41;7395097;19;20091;-51
2022/10/12 01:56:30;;;;;;;0.38;0.38;;;;;;;11.84;100.00;100379.31;7396637;19;20031;-52
2022/10/12 01:59:02;;;;;;;0.70;0.70;;;;;;;11.67;100.00;100372.56;7395347;19;20519;-51
2022/10/12 02:01:35;;;;;;;0.88;0.60;;;;;;;11.90;100.00;100364.22;7396871;19;20017;-51
2022/10/12 02:04:21;;;;;;;4.47;1.20;;;;;;;12.03;100.00;100356.41;7398650;19;20091;-52
2022/10/12 02:07:26;;;;;;;0.93;0.52;;;;;;;11.98;100.00;100351.47;7397647;19;20028;-52
2022/10/12 02:09:56;;;;;;;2.78;0.80;;;;;;;11.95;100.00;100344.03;7395170;19;20031;-52
2022/10/12 02:12:24;;;;;;;2.25;0.47;;;;;;;11.94;100.00;100336.91;7394927;19;20031;-51
2022/10/12 02:14:59;;;;;;;0.70;0.45;;;;;;;11.85;100.00;100331.38;7394712;19;20034;-51
2022/10/12 02:17:25;;;;;;;1.73;1.05;;;;;;;11.83;100.00;100325.50;7397041;19;20042;-51
2022/10/12 02:19:58;;;;;;;3.50;0.82;;;;;;;11.82;100.00;100328.78;7395971;19;20086;-51
2022/10/12 02:22:29;;;;;;;0.60;0.60;;;;;;;11.82;100.00;100331.56;7394505;19;20340;-52
2022/10/12 02:24:57;;;;;;;9.55;0.52;;;;;;;11.80;100.00;100326.44;7396138;19;20031;-51
2022/10/12 02:27:25;;;;;;;0.47;0.47;;;;;;;11.79;100.00;100324.91;7395866;19;20014;-52
2022/10/12 02:29:52;;;;;;;0.60;0.60;;;;;;;11.79;100.00;100319.31;7394137;19;20032;-52
2022/10/12 02:32:30;;;;;;;0.40;0.40;;;;;;;11.88;100.00;100316.50;7395948;19;20417;-51
2022/10/12 02:35:05;;;;;;;1.10;0.75;;;;;;;12.05;100.00;100314.84;7395961;19;20371;-52
2022/10/12 02:37:43;;;;;;;1.80;0.20;;;;;;;12.24;100.00;100304.31;7394335;19;20684;-51
2022/10/12 02:40:27;;;;;;;5.43;1.15;;;;;;;12.33;100.00;100304.25;7391265;19;20467;-52
2022/10/12 02:43:01;;;;;;;2.15;0.63;;;;;;;12.39;100.00;100304.38;7395387;19;20455;-52
2022/10/12 02:45:29;;;;;;;0.50;0.50;;;;;;;12.54;100.00;100300.34;7395918;19;20025;-51
2022/10/12 02:47:57;;;;;;;4.22;1.05;;;;;;;12.61;100.00;100299.22;7397727;19;20085;-51
2022/10/12 02:50:25;;;;;;;4.55;0.50;;;;;;;12.66;100.00;100295.75;7394856;19;20010;-52
2022/10/12 02:52:51;;;;;;;0.52;0.52;;;;;;;12.74;100.00;100297.72;7393448;19;20026;-51
2022/10/12 02:55:18;;;;;;;2.08;0.68;;;;;;;12.79;100.00;100301.88;7392832;19;20010;-51
2022/10/12 02:57:44;;;;;;;0.80;0.40;;;;;;;12.81;100.00;100302.16;7396601;19;20017;-52
2022/10/12 03:00:11;;;;;;;0.55;0.55;;;;;;;13.11;100.00;100292.56;7391951;19;20013;-51
2022/10/12 03:02:37;;;;;;;13.95;0.95;;;;;;;13.01;100.00;100296.69;7393474;19;20011;-52
2022/10/12 03:05:03;;;;;;;2.28;0.77;;;;;;;13.17;100.00;100298.22;7393840;19;20078;-51
2022/10/12 03:07:29;;;;;;;1.30;0.47;;;;;;;13.26;100.00;100293.31;7397625;19;20015;-51
2022/10/12 03:09:56;;;;;;;1.05;0.60;;;;;;;13.42;100.00;100284.44;7394576;19;20018;-52
2022/10/12 03:12:22;;;;;;;0.68;0.68;;;;;;;13.51;100.00;100284.31;7394621;19;20014;-52
2022/10/12 03:14:48;;;;;;;0.82;0.82;;;;;;;13.38;100.00;100278.25;7392548;19;20070;-52
2022/10/12 03:17:14;;;;;;;10.75;2.03;;;;;;;13.61;100.00;100274.56;7398241;19;20030;-51
2022/10/12 03:19:40;;;;;;;7.40;0.95;;;;;;;13.73;100.00;100269.13;7392025;19;20023;-52
2022/10/12 03:22:07;;;;;;;0.25;0.25;;;;;;;13.47;100.00;100274.59;7394156;19;20010;-52
2022/10/12 03:24:33;;;;;;;1.02;0.60;;;;;;;13.78;100.00;100277.59;7395546;19;20025;-52
2022/10/12 03:26:59;;;;;;;0.85;0.85;;;;;;;13.98;100.00;100274.06;7394728;19;20471;-51
2022/10/12 03:29:25;;;;;;;0.50;0.50;;;;;;;14.21;100.00;100278.69;7393864;19;20032;-51
2022/10/12 03:31:51;;;;;;;0.85;0.70;;;;;;;14.22;100.00;100269.03;7392575;19;20011;-51
2022/10/12 03:34:17;;;;;;;0.88;0.55;;;;;;;14.22;100.00;100271.81;7391295;19;20025;-52
2022/10/12 03:36:44;;;;;;;0.40;0.40;;;;;;;14.40;100.00;100274.38;7393891;19;20003;-51
2022/10/12 03:39:10;;;;;;;0.50;0.50;;;;;;;14.29;100.00;100269.38;7393386;19;20022;-52
2022/10/12 03:41:36;;;;;;;1.23;0.50;;;;;;;14.26;100.00;100272.38;7393101;19;20345;-52
2022/10/12 03:44:02;;;;;;;0.35;0.35;;;;;;;14.08;100.00;100272.66;7393492;19;20022;-52
2022/10/12 03:46:29;;;;;;;1.20;0.30;;;;;;;13.93;100.00;100271.94;7396333;19;20026;-51
2022/10/12 03:48:55;;;;;;;1.05;0.52;;;;;;;13.81;100.00;100273.06;7393791;19;20014;-51
2022/10/12 03:51:21;;;;;;;0.63;0.57;;;;;;;13.76;100.00;100262.53;7393154;19;20026;-51
2022/10/12 03:53:47;;;;;;;0.40;0.40;;;;;;;13.82;100.00;100269.00;7391223;19;20015;-52
2022/10/12 03:56:13;;;;;;;0.68;0.32;;;;;;;13.84;100.00;100258.09;7392891;19;20014;-51
2022/10/12 03:58:39;;;;;;;0.45;0.45;;;;;;;13.77;100.00;100259.28;7397072;19;20085;-52
2022/10/12 04:01:06;;;;;;;7.07;0.80;;;;;;;13.87;100.00;100248.69;7392561;19;20031;-51
2022/10/12 04:03:32;;;;;;;5.70;0.93;;;;;;;13.55;100.00;100256.91;7391977;19;20006;-51
2022/10/12 04:05:58;;;;;;;0.93;0.75;;;;;;;13.80;100.00;100240.72;7392844;19;20014;-52
2022/10/12 04:08:26;;;;;;;2.85;0.40;;;;;;;13.87;100.00;100231.91;7395903;19;20011;-51
2022/10/12 04:10:52;;;;;;;0.57;0.57;;;;;;;13.91;100.00;100229.66;7393061;19;20017;-51
2022/10/12 04:13:19;;;;;;;8.05;1.20;;;;;;;14.06;100.00;100230.38;7390109;19;20030;-51
2022/10/12 04:15:45;;;;;;;0.30;0.20;;;;;;;14.02;100.00;100232.59;7392818;19;20027;-52
2022/10/12 04:18:11;;;;;;;0.40;0.30;;;;;;;14.07;100.00;100232.69;7395908;19;20040;-51
2022/10/12 04:20:37;;;;;;;0.40;0.40;;;;;;;14.10;100.00;100242.13;7393209;19;20015;-51
2022/10/12 04:23:04;;;;;;;1.33;0.20;;;;;;;14.20;100.00;100240.72;7392125;19;20693;-51
2022/10/12 04:25:30;;;;;;;0.17;0.17;;;;;;;14.18;100.00;100243.25;7394708;19;20019;-51
2022/10/12 04:27:56;;;;;;;1.17;1.00;;;;;;;14.26;100.00;100239.53;7394256;19;20038;-51
2022/10/12 04:30:22;;;;;;;3.90;0.90;;;;;;;14.36;100.00;100248.59;7391532;19;20018;-51
2022/10/12 04:32:48;;;;;;;2.55;0.38;;;;;;;14.34;100.00;100239.91;7390527;19;20010;-51
2022/10/12 04:35:14;;;;;;;0.75;0.22;;;;;;;14.56;100.00;100240.16;7392429;19;20010;-51
2022/10/12 04:37:40;;;;;;;0.32;0.32;;;;;;;14.40;100.00;100237.94;7394722;19;20069;-51
2022/10/12 04:40:07;;;;;;;0.20;0.20;;;;;;;14.54;100.00;100237.06;7389912;19;20010;-51
2022/10/12 04:42:33;;;;;;;0.75;0.38;;;;;;;14.59;100.00;100236.38;7391473;19;20021;-50
2022/10/12 04:44:59;;;;;;;0.25;0.20;;;;;;;14.68;100.00;100230.59;7391165;19;20491;-50
2022/10/12 04:47:26;;;;;;;0.57;0.57;;;;;;;14.65;100.00;100228.78;7393258;19;20030;-51
2022/10/12 04:49:52;;;;;;;0.73;0.73;;;;;;;14.68;100.00;100225.00;7391014;19;20018;-51
2022/10/12 04:52:18;;;;;;;1.52;0.55;;;;;;;14.67;100.00;100222.69;7390212;19;20010;-50
2022/10/12 04:54:44;;;;;;;0.63;0.30;;;;;;;14.60;100.00;100223.88;7389122;19;20459;-50
2022/10/12 04:57:10;;;;;;;0.57;0.40;;;;;;;14.52;100.00;100222.78;7392568;19;20018;-51
2022/10/12 04:59:36;;;;;;;2.25;0.45;;;;;;;14.39;100.00;100225.19;7391453;19;20026;-51
2022/10/12 05:02:03;;;;;;;0.20;0.20;;;;;;;14.53;100.00;100218.69;7391604;19;20113;-50
2022/10/12 05:04:29;;;;;;;0.63;0.10;;;;;;;14.69;100.00;100220.91;7389507;19;20103;-50
2022/10/12 05:06:55;;;;;;;0.30;0.20;;;;;;;14.80;100.00;100209.03;7389635;19;20013;-52
2022/10/12 05:09:21;;;;;;;0.70;0.70;;;;;;;14.98;100.00;100211.50;7389622;19;20014;-51
2022/10/12 05:11:48;;;;;;;0.28;0.28;;;;;;;15.08;100.00;100219.22;7388770;19;20006;-51
2022/10/12 05:14:14;;;;;;;0.50;0.20;;;;;;;15.16;100.00;100206.28;7388591;19;20030;-51
2022/10/12 05:16:40;;;;;;;0.95;0.77;;;;;;;15.29;100.00;100210.72;7393051;19;20486;-51
2022/10/12 05:19:06;;;;;;;0.90;0.25;;;;;;;15.38;100.00;100208.47;7389820;19;20015;-50
2022/10/12 05:21:32;;;;;;;1.27;0.95;;;;;;;15.58;100.00;100202.00;7389466;19;20010;-50
2022/10/12 05:23:59;;;;;;;0.70;0.70;;;;;;;15.58;100.00;100202.78;7389107;19;20010;-51
2022/10/12 05:26:25;;;;;;;0.45;0.45;;;;;;;15.53;100.00;100205.53;7390117;19;20019;-51
2022/10/12 05:28:51;;;;;;;1.00;0.57;;;;;;;15.50;100.00;100203.75;7389840;19;20070;-51
2022/10/12 05:31:17;;;;;;;5.25;1.63;;;;;;;15.62;100.00;100200.50;7389557;19;20014;-50
2022/10/12 05:33:43;;;;;;;8.57;0.70;;;;;;;15.76;100.00;100193.19;7390527;19;20830;-51
2022/10/12 05:36:12;;;;;;;5.68;0.70;;;;;;;15.57;100.00;100192.06;7392674;19;20019;-50
2022/10/12 05:38:38;;;;;;;0.47;0.20;;;;;;;15.26;100.00;100183.66;7395633;19;20010;-51
2022/10/12 05:41:04;;;;;;;3.10;0.68;;;;;;;14.14;100.00;100189.50;7388233;19;20021;-56
2022/10/12 05:43:31;;;;;;;0.70;0.70;;;;;;;14.93;100.00;100193.34;7389630;19;20007;-51
2022/10/12 05:45:57;;;;;;;0.40;0.40;;;;;;;15.10;100.00;100193.47;7390833;19;20015;-51
2022/10/12 05:48:37;;;;;;;1.40;0.68;;;;;;;15.09;100.00;100192.72;7395101;19;20017;-51
2022/10/12 05:51:03;;;;;;;0.73;0.35;;;;;;;15.07;100.00;100189.63;7389927;19;20032;-57
2022/10/12 05:53:29;;;;;;;2.63;1.05;;;;;;;15.16;100.00;100180.25;7387082;19;20352;-57
2022/10/12 05:55:58;;;;;;;0.50;0.38;;;;;;;15.25;100.00;100185.69;7388301;19;20018;-58
2022/10/12 05:58:26;;;;;;;1.15;0.82;;;;;;;15.22;100.00;100183.13;7393077;19;20015;-57
2022/10/12 06:00:53;;;;;;;1.80;0.45;;;;;;;15.15;100.00;100185.13;7388373;19;20014;-58
2022/10/12 06:03:20;;;;;;;0.73;0.30;;;;;;;15.14;100.00;100189.19;7388949;19;20344;-58
2022/10/12 06:05:46;;;;;;;2.47;1.00;;;;;;;15.07;100.00;100178.41;7387889;19;20018;-57
2022/10/12 06:08:13;;;;;;;0.22;0.22;;;;;;;10.26;100.00;100198.66;7391835;19;20042;-57
2022/10/12 06:10:45;;;;;;;5.65;1.13;;;;;;;14.12;100.00;100189.22;7388390;19;20520;-58
2022/10/12 06:13:12;;;;;;;1.75;0.82;;;;;;;14.76;100.00;100189.66;7388245;19;20023;-58
2022/10/12 06:15:38;;;;;;;1.85;1.10;;;;;;;14.93;100.00;100182.13;7389514;19;20010;-57
2022/10/12 06:18:04;;;;;;;1.23;0.47;;;;;;;15.01;100.00;100177.59;7391550;19;20478;-58
2022/10/12 06:20:30;;;;;;;0.40;0.40;;;;;;;15.07;100.00;100175.59;7387753;19;20070;-57
2022/10/12 06:22:56;;;;;;;0.47;0.47;;;;;;;15.11;100.00;100170.56;7387347;19;20018;-57
2022/10/12 06:25:22;;;;;;;0.17;0.17;;;;;;;15.24;100.00;100163.75;7391093;19;20014;-58
2022/10/12 06:27:48;;;;;;;2.40;0.88;;;;;;;15.22;100.00;100164.25;7390096;19;20022;-57
2022/10/12 06:30:15;;;;;;;5.75;1.27;;;;;;;15.37;100.00;100166.91;7387834;19;20011;-57
2022/10/12 06:32:41;;;;;;;0.28;0.28;;;;;;;15.43;100.00;100154.47;7387714;19;20073;-57
2022/10/12 06:35:07;;;;;;;3.15;0.82;;;;;;;15.52;100.00;100161.91;7388014;19;20014;-58
2022/10/12 06:37:34;;;;;;;0.68;0.60;;;;;;;15.61;100.00;100156.09;7396410;19;20018;-57
2022/10/12 06:40:00;;;;;;;0.57;0.50;;;;;;;15.73;100.00;100154.88;7395198;19;20014;-57
2022/10/12 06:42:26;;;;;;;0.63;0.35;;;;;;;15.69;100.00;100148.72;7394659;19;20021;-58
2022/10/12 06:44:52;;;;;;;1.95;0.98;;;;;;;15.65;100.00;100142.56;7394675;19;20348;-57
2022/10/12 06:47:18;;;;;;;0.68;0.68;;;;;;;15.59;100.00;100138.97;7398482;19;20017;-57
2022/10/12 06:49:44;;;;;;;1.60;0.82;;;;;;;15.47;100.00;100137.38;7394921;19;20010;-57
2022/10/12 06:52:11;;;;;;;6.85;1.38;;;;;;;15.48;100.00;100136.13;7395009;19;20006;-58
2022/10/12 06:54:37;;;;;;;0.20;0.20;;;;;;;15.50;100.00;100136.38;7393400;19;20011;-57
2022/10/12 06:57:04;;;;;;;0.20;0.17;;;;;;;15.58;100.00;100131.81;7394352;19;20011;-56
2022/10/12 06:59:30;;;;;;;2.47;1.13;;;;;;;15.71;100.00;100129.31;7394847;19;20014;-57
2022/10/12 07:01:57;;;;;;;1.50;0.47;;;;;;;13.52;100.00;100137.56;7393929;19;20019;-57
2022/10/12 07:04:23;;;;;;;1.20;0.55;;;;;;;15.17;100.00;100134.88;7396054;19;20007;-57
2022/10/12 07:06:49;;;;;;;0.40;0.40;;;;;;;15.17;100.00;100134.88;7397876;19;20013;-57
2022/10/12 07:09:16;;;;;;;9.38;0.55;;;;;;;15.59;100.00;100127.75;7395614;19;20007;-57
2022/10/12 07:11:42;;;;;;;0.55;0.55;;;;;;;15.74;100.00;100119.91;7394303;19;20014;-57
2022/10/12 07:14:08;;;;;;;0.60;0.60;;;;;;;15.66;100.00;100127.25;7390815;19;20021;-58
2022/10/12 07:16:34;;;;;;;0.57;0.57;;;;;;;15.34;100.00;100122.97;7396148;19;20006;-57
2022/10/12 07:19:01;;;;;;;0.88;0.88;;;;;;;15.45;100.00;100123.84;7393306;19;20019;-57
2022/10/12 07:21:27;;;;;;;1.92;1.13;;;;;;;15.65;100.00;100120.13;7393011;19;20011;-57
2022/10/12 07:23:53;;;;;;;3.35;0.70;;;;;;;12.29;100.00;100121.38;7394244;19;20010;-56
2022/10/12 07:26:19;;;;;;;2.17;0.77;;;;;;;15.18;100.00;100108.34;7393757;19;20019;-57
2022/10/12 07:28:46;;;;;;;0.75;0.38;;;;;;;16.01;100.00;100112.81;7393476;19;20085;-57
2022/10/12 07:31:12;;;;;;;0.30;0.30;;;;;;;16.07;100.00;100110.81;7392699;19;20010;-57
2022/10/12 07:33:38;;;;;;;1.67;0.60;;;;;;;16.31;100.00;100114.69;7390972;19;20440;-58
2022/10/12 07:36:05;;;;;;;0.60;0.40;;;;;;;16.31;100.00;100103.44;7393436;19;20010;-58
2022/10/12 07:38:32;;;;;;;4.00;0.73;;;;;;;16.45;100.00;100107.31;7394732;19;20015;-58
2022/10/12 07:40:59;;;;;;;10.05;0.68;;;;;;;16.41;100.00;100113.19;7393438;19;20086;-58
2022/10/12 07:43:26;;;;;;;11.93;2.08;;;;;;;16.54;100.00;100113.47;7393624;19;20015;-58
2022/10/12 07:45:52;;;;;;;2.67;0.60;;;;;;;16.45;100.00;100119.31;7393593;19;20011;-58
2022/10/12 07:48:19;;;;;;;1.38;0.55;;;;;;;16.42;100.00;100120.31;7396739;19;20731;-58
2022/10/12 07:50:45;;;;;;;0.55;0.40;;;;;;;16.40;100.00;100119.28;7393137;19;20015;-58
2022/10/12 07:53:12;;;;;;;1.27;0.30;;;;;;;16.52;100.00;100120.88;7391952;19;20019;-57
2022/10/12 07:55:38;;;;;;;1.85;0.85;;;;;;;16.49;100.00;100121.88;7392948;19;20046;-57
2022/10/12 07:58:04;;;;;;;0.40;0.40;;;;;;;16.92;100.00;100114.75;7395441;19;20018;-57
2022/10/12 08:00:31;;;;;;;1.23;0.80;;;;;;;16.88;100.00;100110.66;7392064;19;20507;-57
2022/10/12 08:02:57;;;;;;;1.00;0.55;;;;;;;16.75;100.00;100116.03;7393358;19;20011;-58
2022/10/12 08:05:25;;;;;;;1.02;0.52;;;;;;;16.93;100.00;100123.94;7392569;19;20074;-58
2022/10/12 08:07:51;;;;;;;1.60;0.43;;;;;;;16.96;100.00;100125.72;7395256;19;20014;-58
2022/10/12 08:10:19;;;;;;;1.60;1.15;;;;;;;16.50;100.00;100127.00;7391826;19;20540;-58
2022/10/12 08:12:45;;;;;;;0.30;0.30;;;;;;;16.86;100.00;100132.91;7392514;19;20463;-58
2022/10/12 08:15:13;;;;;;;0.25;0.25;;;;;;;16.81;100.00;100128.03;7392255;19;20463;-58
2022/10/12 08:17:39;;;;;;;0.60;0.50;;;;;;;16.88;100.00;100128.31;7393282;19;20011;-58
2022/10/12 08:20:06;;;;;;;0.60;0.47;;;;;;;16.97;100.00;100124.44;7391910;19;20325;-58
2022/10/12 08:22:32;;;;;;;2.40;0.52;;;;;;;17.01;100.00;100130.59;7391801;19;20355;-58
2022/10/12 08:24:59;;;;;;;0.70;0.70;;;;;;;17.03;100.00;100128.78;7394337;19;20021;-59
2022/10/12 08:27:29;;;;;;;0.40;0.40;;;;;;;17.05;100.00;100133.91;7394511;19;20023;-58
2022/10/12 08:29:55;;;;;;;2.53;1.00;;;;;;;17.09;100.00;100123.91;7391728;19;20038;-58
2022/10/12 08:32:21;;;;;;;2.05;0.85;;;;;;;17.19;100.00;100127.25;7391162;19;20010;-58
2022/10/12 08:34:47;;;;;;;1.35;0.88;;;;;;;17.28;100.00;100121.34;7389137;19;20033;-58
2022/10/12 08:37:14;;;;;;;0.90;0.85;;;;;;;17.21;100.00;100127.50;7392321;19;20347;-59
2022/10/12 08:39:40;;;;;;;0.95;0.70;;;;;;;17.21;100.00;100128.25;7390576;19;20010;-59
2022/10/12 08:42:25;;;;;;;5.88;1.40;;;;;;;17.18;100.00;100125.69;7389564;19;20017;-59
2022/10/12 08:44:54;;;;;;;0.82;0.50;;;;;;;17.20;100.00;100140.03;7391624;19;20467;-59
2022/10/12 08:47:28;;;;;;;0.52;0.43;;;;;;;17.21;100.00;100144.38;7395831;19;20010;-59
2022/10/12 08:49:54;;;;;;;1.45;0.70;;;;;;;17.11;100.00;100138.25;7390903;19;20593;-59
2022/10/12 08:52:27;;;;;;;5.82;2.03;;;;;;;17.01;100.00;100141.84;7391073;19;20070;-61
2022/10/12 08:54:57;;;;;;;3.15;1.40;;;;;;;17.01;100.00;100144.66;7388290;19;20448;-59
2022/10/12 08:57:23;;;;;;;1.20;0.43;;;;;;;17.12;100.00;100144.66;7393818;19;20021;-59
2022/10/12 08:59:49;;;;;;;3.13;1.10;;;;;;;17.08;100.00;100132.88;7389658;19;20017;-59
2022/10/12 09:02:31;;;;;;;1.55;0.95;;;;;;;17.22;100.00;100140.28;7390765;19;20018;-59
2022/10/12 09:05:21;;;;;;;3.85;0.75;;;;;;;17.20;100.00;100126.72;7390424;19;20014;-59
2022/10/12 09:08:01;;;;;;;4.87;0.90;;;;;;;17.27;100.00;100122.63;7392299;19;20031;-60
2022/10/12 09:10:43;;;;;;;0.70;0.40;;;;;;;17.24;100.00;100112.38;7390252;19;20021;-60
2022/10/12 09:13:51;;;;;;;1.08;0.90;;;;;;;17.32;100.00;100116.22;7390489;19;20022;-60
2022/10/12 09:16:24;;;;;;;15.88;3.40;;;;;;;17.51;100.00;100116.44;7387501;19;20021;-59
2022/10/12 09:19:05;;;;;;;1.42;0.60;;;;;;;17.82;100.00;100121.69;7390384;19;20018;-61
2022/10/12 09:21:32;;;;;;;;;;;;;;;17.92;100.00;100115.25;7390507;19;20394;-60
2022/10/12 09:23:58;;;;;;;3.97;1.80;;;;;;;17.98;100.00;100110.34;7389404;19;20439;-61
2022/10/12 09:26:36;;;;;;;3.55;1.45;;;;;;;18.36;100.00;100117.03;7389358;19;20025;-63
2022/10/12 09:29:16;;;;;;;4.65;0.50;;;;;;;18.36;100.00;100113.44;7389786;19;20018;-61
2022/10/12 09:32:01;;;;;;;1.85;0.57;;;;;;;18.37;100.00;100123.41;7388402;19;20010;-60
2022/10/12 09:34:27;;;;;;;11.55;0.90;;;;;;;18.46;100.00;100114.69;7388137;19;20367;-61
2022/10/12 09:36:54;;;;;;;1.50;0.75;;;;;;;18.56;100.00;100118.72;7389985;19;20011;-61
2022/10/12 09:39:31;;;;;;;2.10;0.75;;;;;;;18.65;100.00;100112.72;7388864;19;20010;-60
2022/10/12 09:41:57;;;;;;;1.85;0.73;;;;;;;18.69;100.00;100113.25;7389399;19;20027;-60
2022/10/12 09:45:13;;;;;;;0.60;0.60;;;;;;;18.85;100.00;100112.31;7389534;19;20066;-60
2022/10/12 09:47:39;;;;;;;0.95;0.22;;;;;;;18.61;100.00;100104.56;7387295;19;20011;-61
2022/10/12 09:50:06;;;;;;;0.73;0.60;;;;;;;18.72;100.00;100103.69;7387988;19;20019;-60
2022/10/12 09:52:35;;;;;;;1.15;1.05;;;;;;;18.89;100.00;100095.84;7388797;19;20478;-60
2022/10/12 09:55:13;;;;;;;9.75;1.20;;;;;;;18.69;100.00;100099.13;7387591;19;20466;-61
2022/10/12 09:57:42;;;;;;;5.45;1.02;;;;;;;18.69;100.00;100087.84;7391696;19;20361;-60
2022/10/12 10:00:33;;;;;;;1.15;0.90;;;;;;;18.88;100.00;100080.22;7387095;19;20363;-60
2022/10/12 10:03:01;;;;;;;19.42;1.65;;;;;;;18.95;100.00;100079.63;7388657;19;20017;-60
2022/10/12 10:05:31;;;;;;;4.22;1.45;;;;;;;19.02;100.00;100087.50;7389208;19;20474;-60
2022/10/12 10:08:18;;;;;;;7.97;0.65;;;;;;;19.21;100.00;100082.69;7390778;19;20015;-60
2022/10/12 10:10:49;;;;;;;2.40;1.02;;;;;;;19.37;100.00;100095.91;7392728;19;20011;-60
2022/10/12 10:13:16;;;;;;;4.07;1.15;;;;;;;19.58;100.00;100084.88;7395342;19;20010;-61
2022/10/12 10:15:46;;;;;;;2.95;0.77;;;;;;;19.84;100.00;100078.66;7397976;19;20022;-59
2022/10/12 10:18:34;;;;;;;2.42;0.90;;;;;;;20.03;100.00;100082.22;7400012;19;20011;-60
2022/10/12 10:21:02;;;;;;;5.78;0.85;;;;;;;20.24;100.00;100071.91;7394683;19;20554;-60
2022/10/12 10:23:33;;;;;;;2.40;0.68;;;;;;;20.32;100.00;100070.00;7396253;19;20636;-60
2022/10/12 10:26:06;;;;;;;6.45;0.85;;;;;;;20.49;100.00;100067.66;7398966;19;20074;-60
2022/10/12 10:28:35;;;;;;;2.40;0.82;;;;;;;20.54;100.00;100074.53;7400853;19;20038;-60
2022/10/12 10:31:06;;;;;;;5.78;1.23;;;;;;;20.21;100.00;100072.97;7396949;19;20351;-60
2022/10/12 10:33:34;;;;;;;1.45;0.77;;;;;;;20.34;100.00;100078.69;7393936;19;20476;-60
2022/10/12 10:36:22;;;;;;;0.77;0.60;;;;;;;20.08;100.00;100061.56;7395840;19;20018;-60
2022/10/12 10:39:04;;;;;;;12.43;0.50;;;;;;;19.86;100.00;100067.56;7395159;19;20018;-60
2022/10/12 10:41:36;;;;;;;0.55;0.50;;;;;;;20.04;100.00;100058.31;7395878;19;20425;-60
2022/10/12 10:44:04;;;;;;;7.03;0.43;;;;;;;19.98;100.00;100046.31;7394505;19;20470;-60
2022/10/12 10:46:33;;;;;;;2.17;1.08;;;;;;;19.98;100.00;100047.09;7397762;19;20078;-59
2022/10/12 10:49:05;;;;;;;0.30;0.22;;;;;;;20.06;100.00;100044.38;7395173;19;20009;-60
2022/10/12 10:51:40;;;;;;;3.95;1.02;;;;;;;20.06;100.00;100050.03;7394662;19;20010;-61
2022/10/12 10:54:16;;;;;;;6.35;0.75;;;;;;;20.20;100.00;100046.00;7393155;19;20006;-60
2022/10/12 10:56:45;;;;;;;2.85;0.82;;;;;;;20.24;100.00;100037.97;7395049;19;20174;-60
2022/10/12 10:59:35;;;;;;;5.40;0.93;;;;;;;20.32;100.00;100024.72;7394772;19;20066;-60
2022/10/12 11:02:13;;;;;;;6.50;1.80;;;;;;;20.45;100.00;100021.94;7394220;19;20252;-60
2022/10/12 11:04:43;;;;;;;1.88;0.82;;;;;;;20.38;100.00;100022.56;7393140;19;20002;-60
2022/10/12 11:07:19;;;;;;;3.15;0.77;;;;;;;20.47;100.00;100030.66;7396534;19;20459;-60
2022/10/12 11:09:52;;;;;;;6.93;0.85;;;;;;;20.46;100.00;100026.31;7393812;19;20108;-60
2022/10/12 11:12:24;;;;;;;0.85;0.43;;;;;;;20.70;100.00;100023.31;7394526;19;20021;-60
2022/10/12 11:14:54;;;;;;;7.05;1.13;;;;;;;20.71;100.00;100019.16;7391393;19;20164;-60
2022/10/12 11:17:32;;;;;;;2.00;0.57;;;;;;;20.77;100.00;100036.06;7399275;19;20070;-60
2022/10/12 11:20:37;;;;;;;3.72;1.10;;;;;;;20.72;100.00;100034.84;7393357;19;20037;-60
2022/10/12 11:23:08;;;;;;;1.98;0.70;;;;;;;20.66;100.00;100017.19;7392147;19;20006;-60
2022/10/12 11:25:49;;;;;;;1.88;0.90;;;;;;;20.64;100.00;100010.56;7397511;19;20164;-60
2022/10/12 11:28:15;;;;;;;2.55;0.75;;;;;;;20.50;100.00;100018.25;7397857;19;20010;-59
2022/10/12 11:30:50;;;;;;;1.05;0.57;;;;;;;20.37;100.00;100021.06;7392825;19;20017;-60